Time;durP1;ratioP1;P1;durP2;ratioP2;P2;SDS_P1;SDS_P2;PMS_P1;PMS_P2;Temp;Humidity;BMP_temperature;BMP_pressure;BME280_temperature;BME280_humidity;BME280_pressure;Samples;Min_cycle;Max_cycle;Signal;HPM_P1;HPM_P2
2021/09/15 00:01:46;;;;;;;12.00;10.90;;;;;;;;;;4962720;28;20706;-79
2021/09/15 00:04:11;;;;;;;12.43;11.27;;;;;;;;;;4965275;28;20610;-78
2021/09/15 00:06:37;;;;;;;12.43;11.20;;;;;;;;;;4962654;28;20551;-79
2021/09/15 00:09:02;;;;;;;14.10;12.23;;;;;;;;;;4960176;28;20207;-79
2021/09/15 00:11:27;;;;;;;12.77;11.57;;;;;;;;;;4963375;28;20202;-79
2021/09/15 00:13:52;;;;;;;12.70;11.40;;;;;;;;;;4962379;28;20559;-79
2021/09/15 00:16:18;;;;;;;13.17;11.97;;;;;;;;;;4963014;28;20196;-79
2021/09/15 00:18:43;;;;;;;12.47;11.47;;;;;;;;;;4962801;28;20655;-79
2021/09/15 00:21:08;;;;;;;11.77;10.73;;;;;;;;;;4961845;28;20339;-79
2021/09/15 00:23:33;;;;;;;12.37;11.20;;;;;;;;;;4962701;28;20194;-79
2021/09/15 00:25:59;;;;;;;12.33;11.13;;;;;;;;;;4961783;28;20183;-79
2021/09/15 00:28:24;;;;;;;12.53;11.27;;;;;;;;;;4957559;28;20708;-79
2021/09/15 00:30:49;;;;;;;11.43;10.53;;;;;;;;;;4961119;28;20261;-79
2021/09/15 00:33:14;;;;;;;11.57;10.40;;;;;;;;;;4960691;28;20194;-79
2021/09/15 00:35:40;;;;;;;12.33;11.23;;;;;;;;;;4962383;28;20575;-79
2021/09/15 00:38:05;;;;;;;13.07;11.87;;;;;;;;;;4961476;28;20281;-79
2021/09/15 00:40:30;;;;;;;11.50;10.50;;;;;;;;;;4959788;28;20217;-79
2021/09/15 00:42:55;;;;;;;13.03;11.80;;;;;;;;;;4959500;28;20626;-80
2021/09/15 00:45:21;;;;;;;13.43;12.33;;;;;;;;;;4962329;28;20179;-79
2021/09/15 00:47:46;;;;;;;14.67;13.37;;;;;;;;;;4958489;28;20242;-79
2021/09/15 00:50:11;;;;;;;12.77;11.67;;;;;;;;;;4958284;28;21445;-79
2021/09/15 00:52:36;;;;;;;14.17;12.87;;;;;;;;;;4959273;28;20182;-79
2021/09/15 00:55:02;;;;;;;12.00;11.00;;;;;;;;;;4961451;28;20183;-79
2021/09/15 00:57:27;;;;;;;14.63;13.13;;;;;;;;;;4958150;28;20199;-79
2021/09/15 00:59:53;;;;;;;12.77;11.57;;;;;;;;;;4960335;28;20186;-79
2021/09/15 01:02:18;;;;;;;13.33;12.17;;;;;;;;;;4962101;28;20194;-79
2021/09/15 01:04:44;;;;;;;12.87;11.77;;;;;;;;;;4959266;28;20265;-79
2021/09/15 01:07:10;;;;;;;13.37;12.30;;;;;;;;;;4960825;28;26093;-79
2021/09/15 01:09:36;;;;;;;12.63;11.53;;;;;;;;;;4962178;28;20237;-79
2021/09/15 01:12:02;;;;;;;12.60;11.40;;;;;;;;;;4962369;28;20985;-79
2021/09/15 01:14:27;;;;;;;13.70;12.50;;;;;;;;;;4959290;28;20202;-79
2021/09/15 01:16:54;;;;;;;12.70;11.50;;;;;;;;;;4958974;28;20682;-79
2021/09/15 01:19:21;;;;;;;13.17;12.00;;;;;;;;;;4963398;28;20175;-79
2021/09/15 01:21:47;;;;;;;13.20;12.00;;;;;;;;;;4963365;28;20437;-78
2021/09/15 01:24:12;;;;;;;12.60;11.50;;;;;;;;;;4961981;28;20426;-79
2021/09/15 01:26:38;;;;;;;12.80;11.70;;;;;;;;;;4960007;28;20281;-78
2021/09/15 01:29:03;;;;;;;12.30;11.30;;;;;;;;;;4959509;28;20211;-80
2021/09/15 01:31:28;;;;;;;13.83;12.70;;;;;;;;;;4963922;28;20294;-79
2021/09/15 01:33:54;;;;;;;13.03;11.93;;;;;;;;;;4962261;28;20209;-80
2021/09/15 01:36:19;;;;;;;13.67;12.37;;;;;;;;;;4959689;28;20186;-80
2021/09/15 01:38:44;;;;;;;13.57;12.27;;;;;;;;;;4960831;28;20619;-80
2021/09/15 01:41:09;;;;;;;15.20;13.80;;;;;;;;;;4959991;28;20221;-80
2021/09/15 01:43:35;;;;;;;13.63;12.50;;;;;;;;;;4962406;28;20197;-79
2021/09/15 01:46:00;;;;;;;14.80;13.37;;;;;;;;;;4960285;28;20187;-80
2021/09/15 01:48:25;;;;;;;13.90;12.70;;;;;;;;;;4960317;28;20631;-79
2021/09/15 01:50:50;;;;;;;13.80;12.47;;;;;;;;;;4959851;28;20310;-79
2021/09/15 01:53:16;;;;;;;13.17;11.83;;;;;;;;;;4960061;28;20179;-79
2021/09/15 01:55:41;;;;;;;13.10;12.00;;;;;;;;;;4958486;28;20194;-80
2021/09/15 01:58:08;;;;;;;13.00;11.90;;;;;;;;;;4957526;28;20647;-80
2021/09/15 02:00:34;;;;;;;15.87;14.43;;;;;;;;;;4960973;28;20214;-80
2021/09/15 02:03:00;;;;;;;15.47;13.97;;;;;;;;;;4960185;28;20954;-80
2021/09/15 02:05:25;;;;;;;14.00;12.70;;;;;;;;;;4962082;28;20445;-80
2021/09/15 02:07:50;;;;;;;15.90;14.20;;;;;;;;;;4960124;28;20746;-79
2021/09/15 02:10:15;;;;;;;14.93;13.33;;;;;;;;;;4959576;28;20221;-80
2021/09/15 02:12:41;;;;;;;14.50;13.20;;;;;;;;;;4960651;28;20182;-80
2021/09/15 02:15:10;;;;;;;15.60;14.20;;;;;;;;;;4959288;28;20329;-80
2021/09/15 02:17:36;;;;;;;16.03;14.53;;;;;;;;;;4958880;28;20202;-80
2021/09/15 02:20:01;;;;;;;16.60;15.03;;;;;;;;;;4961583;28;20444;-80
2021/09/15 02:22:27;;;;;;;19.47;17.70;;;;;;;;;;4959724;28;20195;-80
2021/09/15 02:24:52;;;;;;;17.73;16.03;;;;;;;;;;4960128;28;20187;-80
2021/09/15 02:27:17;;;;;;;17.37;15.60;;;;;;;;;;4959263;28;20203;-80
2021/09/15 02:29:42;;;;;;;18.90;17.10;;;;;;;;;;4959231;28;20245;-80
2021/09/15 02:32:08;;;;;;;18.97;17.13;;;;;;;;;;4959847;28;20191;-80
2021/09/15 02:34:33;;;;;;;18.50;16.90;;;;;;;;;;4960723;28;20262;-80
2021/09/15 02:36:58;;;;;;;17.97;16.37;;;;;;;;;;4959946;28;20197;-79
2021/09/15 02:39:24;;;;;;;18.67;16.87;;;;;;;;;;4959885;28;20186;-78
2021/09/15 02:41:49;;;;;;;20.80;18.53;;;;;;;;;;4961369;28;20249;-80
2021/09/15 02:44:14;;;;;;;19.20;17.50;;;;;;;;;;4960028;28;20186;-81
2021/09/15 02:46:39;;;;;;;18.13;16.43;;;;;;;;;;4959602;28;20190;-79
2021/09/15 02:49:04;;;;;;;18.57;16.87;;;;;;;;;;4961347;28;20198;-78
2021/09/15 02:51:30;;;;;;;18.17;16.37;;;;;;;;;;4960537;28;20207;-79
2021/09/15 02:53:55;;;;;;;21.23;19.17;;;;;;;;;;4961070;28;20612;-78
2021/09/15 02:56:20;;;;;;;18.63;17.00;;;;;;;;;;4961336;28;20179;-79
2021/09/15 02:58:45;;;;;;;20.67;18.77;;;;;;;;;;4957113;28;20195;-79
2021/09/15 03:01:11;;;;;;;19.60;17.67;;;;;;;;;;4959980;28;20265;-78
2021/09/15 03:03:36;;;;;;;20.37;18.50;;;;;;;;;;4960478;28;20274;-79
2021/09/15 03:06:01;;;;;;;20.70;18.77;;;;;;;;;;4958112;28;20656;-79
2021/09/15 03:08:27;;;;;;;20.47;18.47;;;;;;;;;;4959949;28;20194;-79
2021/09/15 03:10:52;;;;;;;19.30;17.57;;;;;;;;;;4959648;28;20208;-79
2021/09/15 03:13:17;;;;;;;18.77;17.00;;;;;;;;;;4958505;28;20174;-79
2021/09/15 03:15:42;;;;;;;20.87;18.77;;;;;;;;;;4961288;28;20646;-78
2021/09/15 03:18:08;;;;;;;20.30;18.30;;;;;;;;;;4958555;28;20210;-79
2021/09/15 03:20:33;;;;;;;20.07;18.37;;;;;;;;;;4957883;28;20191;-79
2021/09/15 03:22:58;;;;;;;20.00;17.97;;;;;;;;;;4960028;28;20726;-79
2021/09/15 03:25:24;;;;;;;20.40;18.10;;;;;;;;;;4961146;28;20186;-78
2021/09/15 03:27:49;;;;;;;19.30;17.40;;;;;;;;;;4957300;28;20214;-79
2021/09/15 03:30:14;;;;;;;19.17;17.37;;;;;;;;;;4959288;28;20198;-79
2021/09/15 03:32:39;;;;;;;19.90;18.00;;;;;;;;;;4957834;28;20174;-78
2021/09/15 03:35:05;;;;;;;20.50;18.50;;;;;;;;;;4958241;28;20186;-79
2021/09/15 03:37:30;;;;;;;20.00;17.40;;;;;;;;;;4961039;28;20257;-79
2021/09/15 03:39:55;;;;;;;19.63;17.53;;;;;;;;;;4961458;28;20185;-79
2021/09/15 03:42:21;;;;;;;21.57;19.57;;;;;;;;;;4961824;28;20644;-78
2021/09/15 03:44:46;;;;;;;20.27;18.17;;;;;;;;;;4959622;28;20185;-79
2021/09/15 03:47:11;;;;;;;19.70;17.80;;;;;;;;;;4959027;28;20198;-79
2021/09/15 03:49:36;;;;;;;21.27;19.13;;;;;;;;;;4959591;28;20206;-79
2021/09/15 03:52:02;;;;;;;20.40;18.40;;;;;;;;;;4960087;28;20266;-79
2021/09/15 03:54:27;;;;;;;19.97;17.87;;;;;;;;;;4958269;28;20277;-79
2021/09/15 03:56:53;;;;;;;22.37;20.17;;;;;;;;;;4953954;28;20887;-78
2021/09/15 03:59:18;;;;;;;20.63;18.73;;;;;;;;;;4956932;28;20233;-79
2021/09/15 04:01:43;;;;;;;22.87;20.57;;;;;;;;;;4960075;28;20185;-79
2021/09/15 04:04:08;;;;;;;24.80;22.10;;;;;;;;;;4959481;28;20187;-79
2021/09/15 04:06:34;;;;;;;26.83;24.13;;;;;;;;;;4957932;28;20175;-79
2021/09/15 04:08:59;;;;;;;25.63;22.97;;;;;;;;;;4958712;28;20194;-78
2021/09/15 04:11:24;;;;;;;27.20;24.33;;;;;;;;;;4956824;28;20213;-80
2021/09/15 04:13:49;;;;;;;31.07;25.50;;;;;;;;;;4959240;28;20871;-80
2021/09/15 04:16:15;;;;;;;28.27;25.30;;;;;;;;;;4958626;28;20211;-80
2021/09/15 04:18:40;;;;;;;29.20;26.00;;;;;;;;;;4958968;28;20217;-80
2021/09/15 04:21:05;;;;;;;26.63;23.73;;;;;;;;;;4958111;28;20183;-80
2021/09/15 04:31:43;;;;;;;24.83;21.90;;;;;;;;;;4978258;28;20457;-80
2021/09/15 04:34:08;;;;;;;21.93;19.00;;;;;;;;;;4964875;28;20442;-79
2021/09/15 04:36:34;;;;;;;21.00;18.90;;;;;;;;;;4958676;28;20182;-79
2021/09/15 04:38:59;;;;;;;21.20;19.00;;;;;;;;;;4959194;28;20198;-79
2021/09/15 04:41:24;;;;;;;19.93;17.73;;;;;;;;;;4962500;28;20237;-79
2021/09/15 04:43:49;;;;;;;19.77;17.77;;;;;;;;;;4963298;28;20563;-80
2021/09/15 04:46:15;;;;;;;20.33;18.23;;;;;;;;;;4960348;28;20229;-79
2021/09/15 04:48:40;;;;;;;18.57;16.77;;;;;;;;;;4957449;28;20195;-79
2021/09/15 04:51:06;;;;;;;20.10;17.00;;;;;;;;;;4974792;28;20680;-79
2021/09/15 04:53:32;;;;;;;20.20;17.50;;;;;;;;;;4961414;28;20189;-79
2021/09/15 04:55:57;;;;;;;18.73;16.80;;;;;;;;;;4958280;28;20435;-79
2021/09/15 04:58:22;;;;;;;18.60;16.63;;;;;;;;;;4965527;28;20209;-79
2021/09/15 05:00:48;;;;;;;17.80;16.10;;;;;;;;;;4962484;28;20635;-78
2021/09/15 05:03:13;;;;;;;19.20;17.03;;;;;;;;;;4961350;28;20190;-79
2021/09/15 05:05:38;;;;;;;17.87;16.07;;;;;;;;;;4959930;28;20270;-77
2021/09/15 05:08:04;;;;;;;17.90;16.10;;;;;;;;;;4958436;28;20199;-79
2021/09/15 05:10:29;;;;;;;17.50;15.90;;;;;;;;;;4959159;28;20207;-78
2021/09/15 05:12:55;;;;;;;17.33;15.60;;;;;;;;;;4959376;28;20183;-78
2021/09/15 05:15:21;;;;;;;16.60;15.00;;;;;;;;;;4957913;28;20273;-78
2021/09/15 05:17:46;;;;;;;17.00;15.50;;;;;;;;;;4960447;28;20235;-77
2021/09/15 05:20:16;;;;;;;20.20;18.10;;;;;;;;;;4959490;28;20437;-79
2021/09/15 05:22:41;;;;;;;19.50;17.40;;;;;;;;;;4963738;28;20327;-80
2021/09/15 05:25:07;;;;;;;16.57;14.87;;;;;;;;;;4958399;28;20438;-78
2021/09/15 05:27:32;;;;;;;19.43;17.43;;;;;;;;;;4956675;28;20252;-79
2021/09/15 05:29:57;;;;;;;18.30;16.37;;;;;;;;;;4959746;28;20203;-79
2021/09/15 05:32:23;;;;;;;20.83;17.77;;;;;;;;;;4958935;28;20182;-79
2021/09/15 05:34:48;;;;;;;20.13;17.93;;;;;;;;;;4959975;28;20187;-78
2021/09/15 05:37:13;;;;;;;19.83;17.73;;;;;;;;;;4960047;28;20234;-78
2021/09/15 05:39:38;;;;;;;23.13;20.73;;;;;;;;;;4959824;28;20210;-80
2021/09/15 05:42:04;;;;;;;21.37;19.23;;;;;;;;;;4957632;28;20534;-78
2021/09/15 05:44:29;;;;;;;20.80;18.70;;;;;;;;;;4958946;28;20726;-78
2021/09/15 05:46:54;;;;;;;19.80;17.80;;;;;;;;;;4958339;28;20190;-78
2021/09/15 05:49:19;;;;;;;21.83;17.47;;;;;;;;;;4956803;28;20229;-79
2021/09/15 05:51:45;;;;;;;21.00;18.63;;;;;;;;;;4960165;28;20226;-79
2021/09/15 05:54:10;;;;;;;23.63;18.80;;;;;;;;;;4962380;28;20670;-79
2021/09/15 05:56:36;;;;;;;22.53;18.50;;;;;;;;;;4966745;28;20178;-79
2021/09/15 05:59:01;;;;;;;30.43;22.27;;;;;;;;;;4963814;28;20230;-79
2021/09/15 06:01:29;;;;;;;25.47;20.57;;;;;;;;;;4972209;28;20555;-80
2021/09/15 06:03:54;;;;;;;24.13;21.57;;;;;;;;;;4959174;28;20190;-78
2021/09/15 06:06:21;;;;;;;25.20;20.20;;;;;;;;;;4960935;28;20819;-79
2021/09/15 06:08:47;;;;;;;26.23;21.03;;;;;;;;;;4963871;28;20202;-80
2021/09/15 06:11:12;;;;;;;28.10;23.60;;;;;;;;;;4958220;28;20489;-80
2021/09/15 06:13:37;;;;;;;26.33;22.37;;;;;;;;;;4967853;28;20278;-80
2021/09/15 06:16:06;;;;;;;24.03;20.23;;;;;;;;;;4959079;28;20193;-79
2021/09/15 06:18:32;;;;;;;24.70;22.00;;;;;;;;;;4959367;28;20206;-78
2021/09/15 06:20:58;;;;;;;27.00;22.83;;;;;;;;;;4956659;28;20528;-78
2021/09/15 06:23:23;;;;;;;26.40;22.90;;;;;;;;;;4956553;28;20541;-79
2021/09/15 06:25:48;;;;;;;32.23;25.20;;;;;;;;;;4960253;28;20213;-79
2021/09/15 06:28:14;;;;;;;30.80;26.87;;;;;;;;;;4957757;28;20218;-78
2021/09/15 06:30:41;;;;;;;26.57;23.70;;;;;;;;;;4961973;28;20222;-79
2021/09/15 06:33:06;;;;;;;26.77;23.90;;;;;;;;;;4973254;28;20257;-78
2021/09/15 06:35:32;;;;;;;26.60;23.67;;;;;;;;;;4961047;28;20926;-81
2021/09/15 06:37:57;;;;;;;34.10;28.80;;;;;;;;;;4959432;28;20585;-79
2021/09/15 06:40:22;;;;;;;33.80;29.03;;;;;;;;;;4958884;28;20298;-79
2021/09/15 06:42:47;;;;;;;31.50;27.57;;;;;;;;;;4960826;28;20190;-79
2021/09/15 06:45:13;;;;;;;35.60;29.87;;;;;;;;;;4956836;28;20214;-80
2021/09/15 06:47:38;;;;;;;37.47;32.20;;;;;;;;;;4960330;28;20234;-80
2021/09/15 06:50:04;;;;;;;33.80;29.20;;;;;;;;;;4960923;28;20230;-80
2021/09/15 06:52:29;;;;;;;33.33;29.87;;;;;;;;;;4959955;28;20480;-80
2021/09/15 06:54:54;;;;;;;33.77;29.50;;;;;;;;;;4962606;28;20185;-80
2021/09/15 06:57:20;;;;;;;37.63;31.77;;;;;;;;;;4960256;28;20194;-80
2021/09/15 06:59:45;;;;;;;37.70;32.70;;;;;;;;;;4959453;28;20179;-80
2021/09/15 07:02:10;;;;;;;36.10;31.97;;;;;;;;;;4957219;28;20214;-78
2021/09/15 07:04:35;;;;;;;33.17;29.60;;;;;;;;;;4959846;28;20183;-79
2021/09/15 07:07:00;;;;;;;38.30;30.63;;;;;;;;;;4959553;28;20281;-78
2021/09/15 07:09:26;;;;;;;34.43;29.90;;;;;;;;;;4956463;28;20856;-79
2021/09/15 07:11:51;;;;;;;39.80;30.83;;;;;;;;;;4957930;28;20214;-80
2021/09/15 07:14:16;;;;;;;39.90;33.03;;;;;;;;;;4958116;28;22391;-79
2021/09/15 07:16:41;;;;;;;37.03;28.37;;;;;;;;;;4958724;28;20181;-78
2021/09/15 07:19:08;;;;;;;38.43;29.53;;;;;;;;;;4956204;28;20233;-78
2021/09/15 07:21:34;;;;;;;34.93;31.20;;;;;;;;;;4960005;28;20194;-79
2021/09/15 07:24:00;;;;;;;34.67;28.90;;;;;;;;;;4960005;28;20540;-79
2021/09/15 07:26:26;;;;;;;40.63;32.07;;;;;;;;;;4957910;28;20183;-78
2021/09/15 07:28:51;;;;;;;35.20;31.23;;;;;;;;;;4959442;28;21042;-78
2021/09/15 07:31:16;;;;;;;37.80;32.17;;;;;;;;;;4955927;28;20199;-77
2021/09/15 07:33:42;;;;;;;37.83;32.87;;;;;;;;;;4957206;28;20518;-78
2021/09/15 07:36:08;;;;;;;37.23;32.00;;;;;;;;;;4955652;28;20190;-79
2021/09/15 07:38:33;;;;;;;41.60;33.17;;;;;;;;;;4958438;28;20577;-78
2021/09/15 07:40:59;;;;;;;36.60;31.53;;;;;;;;;;4957683;28;20433;-79
2021/09/15 07:43:25;;;;;;;36.47;30.40;;;;;;;;;;4957544;28;20189;-81
2021/09/15 07:45:50;;;;;;;39.23;30.63;;;;;;;;;;4959080;28;20515;-78
2021/09/15 07:48:15;;;;;;;37.83;31.40;;;;;;;;;;4959064;28;20281;-79
2021/09/15 07:50:40;;;;;;;40.47;33.37;;;;;;;;;;4957491;28;20670;-78
2021/09/15 07:53:06;;;;;;;36.43;30.30;;;;;;;;;;4959928;28;20182;-78
2021/09/15 07:55:31;;;;;;;32.60;27.97;;;;;;;;;;4957318;28;22051;-78
2021/09/15 07:57:56;;;;;;;35.53;31.60;;;;;;;;;;4960358;28;20222;-78
2021/09/15 08:00:22;;;;;;;34.07;29.70;;;;;;;;;;4955614;28;20190;-77
2021/09/15 08:02:47;;;;;;;36.53;31.00;;;;;;;;;;4955476;28;21019;-77
2021/09/15 08:05:13;;;;;;;34.83;31.00;;;;;;;;;;4957679;28;20186;-78
2021/09/15 08:07:38;;;;;;;36.40;31.70;;;;;;;;;;4960201;28;20255;-78
2021/09/15 08:10:06;;;;;;;31.17;27.80;;;;;;;;;;4957124;28;20202;-79
2021/09/15 08:12:31;;;;;;;34.33;28.87;;;;;;;;;;4957260;28;20179;-78
2021/09/15 08:14:56;;;;;;;34.03;27.73;;;;;;;;;;4958122;28;20802;-78
2021/09/15 08:17:21;;;;;;;32.33;28.47;;;;;;;;;;4959773;28;20237;-80
2021/09/15 08:19:47;;;;;;;34.07;29.33;;;;;;;;;;4961986;28;20179;-78
2021/09/15 08:22:12;;;;;;;37.30;30.53;;;;;;;;;;4962036;28;20662;-79
2021/09/15 08:24:37;;;;;;;37.63;30.80;;;;;;;;;;4962751;28;20183;-78
2021/09/15 08:27:02;;;;;;;34.60;29.63;;;;;;;;;;4958675;28;20237;-79
2021/09/15 08:29:28;;;;;;;37.20;30.33;;;;;;;;;;4960322;28;20638;-78
2021/09/15 08:31:53;;;;;;;32.77;29.27;;;;;;;;;;4960221;28;20237;-77
2021/09/15 08:34:18;;;;;;;36.30;30.83;;;;;;;;;;4963365;28;20179;-79
2021/09/15 08:36:43;;;;;;;41.53;32.33;;;;;;;;;;4962140;28;20183;-78
2021/09/15 08:39:08;;;;;;;42.20;33.00;;;;;;;;;;4960043;28;20202;-81
2021/09/15 08:41:34;;;;;;;35.87;31.93;;;;;;;;;;4961995;28;20289;-78
2021/09/15 08:43:59;;;;;;;37.03;31.53;;;;;;;;;;4962157;28;20195;-78
2021/09/15 08:46:26;;;;;;;37.33;30.63;;;;;;;;;;4960025;28;20241;-78
2021/09/15 08:48:52;;;;;;;39.50;32.47;;;;;;;;;;4960375;28;20237;-81
2021/09/15 08:51:22;;;;;;;43.07;33.93;;;;;;;;;;4959984;28;20501;-80
2021/09/15 08:53:48;;;;;;;50.37;36.43;;;;;;;;;;4964651;28;20168;-81
2021/09/15 08:56:13;;;;;;;43.87;33.77;;;;;;;;;;4958109;28;20430;-80
2021/09/15 08:58:39;;;;;;;47.07;36.77;;;;;;;;;;4961375;28;20677;-79
2021/09/15 09:01:12;;;;;;;42.13;33.43;;;;;;;;;;4958120;28;20178;-80
2021/09/15 09:03:37;;;;;;;49.80;34.60;;;;;;;;;;4959598;28;20187;-80
2021/09/15 09:06:13;;;;;;;46.40;34.00;;;;;;;;;;4961666;28;20895;-79
2021/09/15 09:08:42;;;;;;;53.27;36.40;;;;;;;;;;4960702;28;20314;-80
2021/09/15 09:11:07;;;;;;;50.43;38.00;;;;;;;;;;4961212;28;20484;-79
2021/09/15 09:13:46;;;;;;;53.93;39.13;;;;;;;;;;4961856;28;20431;-77
2021/09/15 09:16:11;;;;;;;51.00;38.17;;;;;;;;;;4960166;28;20179;-78
2021/09/15 09:18:54;;;;;;;53.23;39.93;;;;;;;;;;4960111;28;20827;-78
2021/09/15 09:21:23;;;;;;;50.80;39.20;;;;;;;;;;4960881;28;20269;-78
2021/09/15 09:23:54;;;;;;;52.40;38.10;;;;;;;;;;4960032;28;20454;-78
2021/09/15 09:26:19;;;;;;;56.60;38.10;;;;;;;;;;4960176;28;20435;-77
2021/09/15 09:28:44;;;;;;;58.13;38.67;;;;;;;;;;4960482;28;20458;-79
2021/09/15 09:31:10;;;;;;;56.03;39.50;;;;;;;;;;4960090;28;20210;-78
2021/09/15 09:33:36;;;;;;;58.13;39.90;;;;;;;;;;4960728;28;20190;-77
2021/09/15 09:36:05;;;;;;;53.20;39.13;;;;;;;;;;4961032;28;20435;-78
2021/09/15 09:38:38;;;;;;;57.23;38.00;;;;;;;;;;4960532;28;20636;-78
2021/09/15 09:41:11;;;;;;;53.60;40.87;;;;;;;;;;4958761;28;20517;-78
2021/09/15 09:43:41;;;;;;;54.03;39.97;;;;;;;;;;4958171;28;20450;-77
2021/09/15 09:46:07;;;;;;;51.50;38.50;;;;;;;;;;4960495;28;20434;-77
2021/09/15 09:48:37;;;;;;;55.33;37.37;;;;;;;;;;4959320;28;20457;-77
2021/09/15 09:51:04;;;;;;;48.70;37.80;;;;;;;;;;4960139;28;20466;-78
2021/09/15 09:53:30;;;;;;;52.97;39.30;;;;;;;;;;4956838;28;20426;-77
2021/09/15 09:55:59;;;;;;;51.23;38.63;;;;;;;;;;4961869;28;20494;-78
2021/09/15 09:58:25;;;;;;;48.17;36.87;;;;;;;;;;4959520;28;20443;-77
2021/09/15 10:00:54;;;;;;;49.97;37.30;;;;;;;;;;4961229;28;21767;-78
2021/09/15 10:03:20;;;;;;;46.80;35.37;;;;;;;;;;4955808;28;20983;-76
2021/09/15 10:05:45;;;;;;;48.03;34.70;;;;;;;;;;4957407;28;20522;-78
2021/09/15 10:08:11;;;;;;;52.43;37.63;;;;;;;;;;4956169;28;20578;-78
2021/09/15 10:10:39;;;;;;;43.23;34.10;;;;;;;;;;4958252;28;20238;-77
2021/09/15 10:13:06;;;;;;;40.90;32.40;;;;;;;;;;4962207;28;20183;-78
2021/09/15 10:15:32;;;;;;;45.33;33.23;;;;;;;;;;4959347;28;20550;-77
2021/09/15 10:17:57;;;;;;;47.70;33.57;;;;;;;;;;4959994;28;21562;-77
2021/09/15 10:20:24;;;;;;;40.77;31.10;;;;;;;;;;4960679;28;20187;-79
2021/09/15 10:22:49;;;;;;;43.07;33.20;;;;;;;;;;4960788;28;20209;-78
2021/09/15 10:25:15;;;;;;;39.87;32.93;;;;;;;;;;4958633;28;20799;-79
2021/09/15 10:28:17;;;;;;;37.63;32.10;;;;;;;;;;4959629;28;20210;-78
2021/09/15 10:30:49;;;;;;;34.07;30.17;;;;;;;;;;4960521;28;20202;-77
2021/09/15 10:33:34;;;;;;;33.77;28.47;;;;;;;;;;4959899;28;20963;-77
2021/09/15 10:35:59;;;;;;;32.00;27.37;;;;;;;;;;4956564;28;20451;-77
2021/09/15 10:38:44;;;;;;;32.43;27.53;;;;;;;;;;4959191;28;20462;-77
2021/09/15 10:41:27;;;;;;;37.40;28.63;;;;;;;;;;4958632;28;20231;-77
2021/09/15 10:44:03;;;;;;;33.40;29.03;;;;;;;;;;4961698;28;20969;-77
2021/09/15 10:46:28;;;;;;;34.73;30.20;;;;;;;;;;4961871;28;20505;-77
2021/09/15 10:49:20;;;;;;;32.30;26.43;;;;;;;;;;4959790;28;20944;-77
2021/09/15 10:51:46;;;;;;;34.70;27.03;;;;;;;;;;4956890;28;20218;-77
2021/09/15 10:54:30;;;;;;;31.93;27.37;;;;;;;;;;4958339;28;20434;-77
2021/09/15 10:57:12;;;;;;;31.87;27.63;;;;;;;;;;4958749;28;20457;-76
2021/09/15 10:59:57;;;;;;;33.03;26.50;;;;;;;;;;4956842;28;20446;-77
2021/09/15 11:02:26;;;;;;;29.97;24.93;;;;;;;;;;4957124;28;20445;-78
2021/09/15 11:04:52;;;;;;;27.57;23.77;;;;;;;;;;4959487;28;21125;-77
2021/09/15 11:07:36;;;;;;;27.47;24.53;;;;;;;;;;4958558;28;20454;-78
2021/09/15 11:10:01;;;;;;;32.33;24.63;;;;;;;;;;4956094;28;20214;-77
2021/09/15 11:12:49;;;;;;;27.73;24.07;;;;;;;;;;4956653;28;20453;-77
2021/09/15 11:15:24;;;;;;;29.43;22.90;;;;;;;;;;4965695;28;20182;-77
2021/09/15 11:17:49;;;;;;;26.23;22.43;;;;;;;;;;4957274;28;20456;-79
2021/09/15 11:20:18;;;;;;;26.63;21.80;;;;;;;;;;4952088;28;20431;-80
2021/09/15 11:22:43;;;;;;;26.50;19.87;;;;;;;;;;4958088;28;20210;-79
2021/09/15 11:25:08;;;;;;;24.60;21.97;;;;;;;;;;4956348;28;20462;-79
2021/09/15 11:27:33;;;;;;;26.37;21.97;;;;;;;;;;4956183;28;20206;-78
2021/09/15 11:29:59;;;;;;;24.37;20.53;;;;;;;;;;4958214;28;20679;-77
2021/09/15 11:32:24;;;;;;;26.70;23.80;;;;;;;;;;4954010;28;20313;-79
2021/09/15 11:34:51;;;;;;;27.87;24.87;;;;;;;;;;4955456;28;20178;-78
2021/09/15 11:37:24;;;;;;;24.97;22.27;;;;;;;;;;4955318;28;20678;-78
2021/09/15 11:39:57;;;;;;;28.83;23.80;;;;;;;;;;4955294;28;20446;-77
2021/09/15 11:42:32;;;;;;;26.90;23.47;;;;;;;;;;4960333;28;20432;-76
2021/09/15 11:45:16;;;;;;;26.20;22.90;;;;;;;;;;4959474;28;20429;-78
2021/09/15 11:47:43;;;;;;;25.83;20.87;;;;;;;;;;4956706;28;20466;-77
2021/09/15 11:50:15;;;;;;;27.13;21.97;;;;;;;;;;4958569;28;20480;-76
2021/09/15 11:52:47;;;;;;;23.50;21.13;;;;;;;;;;4962485;28;20484;-76
2021/09/15 11:55:14;;;;;;;27.57;21.80;;;;;;;;;;4961701;28;20957;-75
2021/09/15 11:58:00;;;;;;;24.70;21.97;;;;;;;;;;4962493;28;20458;-76
2021/09/15 12:00:26;;;;;;;23.87;21.27;;;;;;;;;;4963700;28;21018;-76
2021/09/15 12:02:52;;;;;;;24.60;20.93;;;;;;;;;;4962275;28;20521;-76
2021/09/15 12:05:19;;;;;;;21.00;18.80;;;;;;;;;;4963043;28;20438;-76
2021/09/15 12:07:45;;;;;;;25.67;22.97;;;;;;;;;;4958160;28;22407;-75
2021/09/15 12:10:10;;;;;;;27.27;22.70;;;;;;;;;;4959742;28;20469;-77
2021/09/15 12:12:36;;;;;;;26.40;23.70;;;;;;;;;;4960606;28;20190;-75
2021/09/15 12:15:02;;;;;;;24.77;22.17;;;;;;;;;;4958701;28;20214;-76
2021/09/15 12:17:27;;;;;;;23.50;21.10;;;;;;;;;;4960935;28;20245;-76
2021/09/15 12:19:56;;;;;;;25.13;22.73;;;;;;;;;;4959586;28;20241;-74
2021/09/15 12:22:22;;;;;;;24.27;21.50;;;;;;;;;;4957219;28;20269;-75
2021/09/15 12:24:58;;;;;;;25.80;23.10;;;;;;;;;;4963145;28;20422;-76
2021/09/15 12:27:24;;;;;;;25.53;22.83;;;;;;;;;;4957914;28;20453;-77
2021/09/15 12:29:58;;;;;;;24.20;21.50;;;;;;;;;;4962918;28;21422;-76
2021/09/15 12:32:37;;;;;;;24.77;22.23;;;;;;;;;;4960573;28;20453;-77
2021/09/15 12:35:03;;;;;;;24.47;21.73;;;;;;;;;;4962109;28;20440;-76
2021/09/15 12:37:36;;;;;;;22.00;19.70;;;;;;;;;;4962939;28;20537;-76
2021/09/15 12:40:03;;;;;;;25.87;22.73;;;;;;;;;;4961663;28;20445;-76
2021/09/15 12:42:30;;;;;;;23.17;20.77;;;;;;;;;;4959657;28;20490;-76
2021/09/15 12:45:04;;;;;;;22.37;19.40;;;;;;;;;;4958761;28;20435;-77
2021/09/15 12:47:33;;;;;;;20.00;17.90;;;;;;;;;;4963223;28;20458;-77
2021/09/15 12:50:03;;;;;;;26.67;22.57;;;;;;;;;;4958743;28;20957;-77
2021/09/15 12:52:29;;;;;;;23.33;20.90;;;;;;;;;;4960949;28;20993;-77
2021/09/15 12:54:55;;;;;;;20.53;18.47;;;;;;;;;;4958038;28;20426;-77
2021/09/15 12:57:26;;;;;;;23.67;21.27;;;;;;;;;;4958970;28;20451;-78
2021/09/15 12:59:52;;;;;;;23.70;21.23;;;;;;;;;;4957586;28;20444;-78
2021/09/15 13:02:18;;;;;;;26.97;23.30;;;;;;;;;;4957038;28;20805;-78
2021/09/15 13:04:43;;;;;;;30.73;26.03;;;;;;;;;;4962150;28;20185;-77
2021/09/15 13:07:10;;;;;;;36.07;30.63;;;;;;;;;;4960450;28;20450;-77
2021/09/15 13:09:35;;;;;;;36.40;29.60;;;;;;;;;;4958957;28;20270;-77
2021/09/15 13:12:01;;;;;;;41.30;31.10;;;;;;;;;;4962933;28;20633;-77
2021/09/15 13:14:26;;;;;;;37.50;29.90;;;;;;;;;;4961265;28;20198;-77
2021/09/15 13:16:51;;;;;;;41.20;31.50;;;;;;;;;;4961616;28;20190;-77
2021/09/15 13:19:16;;;;;;;35.93;28.93;;;;;;;;;;4957984;28;20179;-76
2021/09/15 13:21:42;;;;;;;38.20;31.00;;;;;;;;;;4958704;28;20178;-76
2021/09/15 13:24:07;;;;;;;37.60;31.53;;;;;;;;;;4960470;28;20187;-77
2021/09/15 13:26:33;;;;;;;41.73;30.70;;;;;;;;;;4959668;28;20273;-78
2021/09/15 13:28:58;;;;;;;36.53;29.57;;;;;;;;;;4962753;28;20210;-77
2021/09/15 13:31:24;;;;;;;36.90;29.20;;;;;;;;;;4962267;28;20633;-76
2021/09/15 13:33:49;;;;;;;26.57;23.00;;;;;;;;;;4961752;28;20650;-76
2021/09/15 13:36:14;;;;;;;37.97;29.97;;;;;;;;;;4963038;28;20745;-77
2021/09/15 13:38:39;;;;;;;31.80;25.77;;;;;;;;;;4963278;28;20739;-76
2021/09/15 13:41:04;;;;;;;35.33;26.20;;;;;;;;;;4963723;28;20649;-76
2021/09/15 13:43:30;;;;;;;31.80;25.00;;;;;;;;;;4964171;28;20568;-76
2021/09/15 13:45:55;;;;;;;32.43;26.27;;;;;;;;;;4961444;28;20202;-77
2021/09/15 13:48:20;;;;;;;30.30;25.70;;;;;;;;;;4960219;28;20791;-77
2021/09/15 13:50:45;;;;;;;30.40;24.70;;;;;;;;;;4957819;28;20199;-76
2021/09/15 13:53:10;;;;;;;31.20;24.40;;;;;;;;;;4960793;28;20187;-77
2021/09/15 13:55:36;;;;;;;29.83;25.00;;;;;;;;;;4960129;28;20342;-76
2021/09/15 13:58:01;;;;;;;33.53;25.13;;;;;;;;;;4960685;28;20285;-75
2021/09/15 14:00:26;;;;;;;29.23;22.50;;;;;;;;;;4962842;28;20230;-76
2021/09/15 14:02:51;;;;;;;27.27;20.77;;;;;;;;;;4961346;28;20187;-76
2021/09/15 14:05:17;;;;;;;27.87;21.53;;;;;;;;;;4960455;28;20820;-76
2021/09/15 14:07:44;;;;;;;29.40;22.07;;;;;;;;;;4961086;28;20296;-77
2021/09/15 14:10:10;;;;;;;28.43;21.93;;;;;;;;;;4961169;28;20207;-76
2021/09/15 14:12:35;;;;;;;26.60;21.53;;;;;;;;;;4962070;28;20431;-76
2021/09/15 14:15:01;;;;;;;24.60;20.90;;;;;;;;;;4962011;28;20553;-75
2021/09/15 14:17:26;;;;;;;29.57;22.03;;;;;;;;;;4961804;28;20206;-76
2021/09/15 14:19:51;;;;;;;22.53;20.10;;;;;;;;;;4962191;28;20229;-76
2021/09/15 14:22:17;;;;;;;25.33;21.00;;;;;;;;;;4960181;28;20190;-76